KHCO

Hallock Municipal Airport

Hallock, Minnesota, USA
METAR KHCO 171635Z AUTO 00000KT 10SM CLR 22/16 A3013 RMK AO2
Observed Flight Rules
Aug-17 @ 16:35 UTC (15 minutes ago) Visual Flight Rules
Visibility Clouds
10 miles
  • Clear skies
Temperatures Readings
Current 22°C / 72°F
Dewpoint 16°C / 61°F
Humidity 69%
Altimeter 30.13" Hg
Pressure 1020 hPa
Elevation 250
METAR KHCO 171635Z AUTO 00000KT 10SM CLR 22/16 A3013 RMK AO2
Observed Flight Rules
Aug-17 @ 16:35 UTC
(15 minutes ago)
VFR
Clouds
  • Clear skies
Temperature Dewpoint
22°C / 72°F 16°C / 61°F
Humidity Altimeter Pressure
69% 30.13" Hg 1020 hPa